createdAt,value
2023-01-03T00:02:19.816Z,17.47
2023-01-03T00:05:05.793Z,20.33
2023-01-03T00:07:51.321Z,20.50
2023-01-03T00:10:37.009Z,20.70
2023-01-03T00:13:22.617Z,17.73
2023-01-03T00:16:18.622Z,19.00
2023-01-03T00:19:09.640Z,19.73
2023-01-03T00:21:54.909Z,16.83
2023-01-03T00:24:40.556Z,17.80
2023-01-03T00:27:26.919Z,20.27
2023-01-03T00:30:12.606Z,18.83
2023-01-03T00:32:58.015Z,18.43
2023-01-03T00:35:43.457Z,19.00
2023-01-03T00:38:29.320Z,18.57
2023-01-03T00:41:17.277Z,17.83
2023-01-03T00:44:03.631Z,15.67
2023-01-03T00:46:49.545Z,16.80
2023-01-03T00:49:35.239Z,16.60
2023-01-03T00:52:20.570Z,16.27
2023-01-03T00:55:06.381Z,18.53
2023-01-03T00:57:52.020Z,16.87
2023-01-03T01:00:37.234Z,16.27
2023-01-03T01:03:22.822Z,15.53
2023-01-03T01:06:30.826Z,16.47
2023-01-03T01:09:20.499Z,15.43
2023-01-03T01:12:07.368Z,15.10
2023-01-03T01:14:52.843Z,14.53
2023-01-03T01:17:38.973Z,16.23
2023-01-03T01:20:24.528Z,15.03
2023-01-03T01:23:09.951Z,14.93
2023-01-03T01:25:55.373Z,16.73
2023-01-03T01:28:42.416Z,12.93
2023-01-03T01:31:28.125Z,15.00
2023-01-03T01:34:14.581Z,14.63
2023-01-03T01:36:59.804Z,16.00
2023-01-03T01:39:45.204Z,14.90
2023-01-03T01:42:49.011Z,14.33
2023-01-03T01:45:35.370Z,13.67
2023-01-03T01:48:20.794Z,12.93
2023-01-03T01:51:09.408Z,14.43
2023-01-03T01:53:56.756Z,13.23
2023-01-03T01:56:51.656Z,14.60
2023-01-03T01:59:37.164Z,13.40
2023-01-03T02:02:24.182Z,14.90
2023-01-03T02:05:10.996Z,14.93
2023-01-03T02:07:57.313Z,14.63
2023-01-03T02:11:10.196Z,12.97
2023-01-03T02:14:18.819Z,13.30
2023-01-03T02:17:20.287Z,14.80
2023-01-03T02:20:18.420Z,12.33
2023-01-03T02:23:42.179Z,13.80
2023-01-03T02:26:40.313Z,12.15
2023-01-03T02:29:31.994Z,12.50
2023-01-03T02:32:35.191Z,12.20
2023-01-03T02:35:46.029Z,11.82
2023-01-03T02:39:02.302Z,14.17
2023-01-03T02:42:23.110Z,13.27
2023-01-03T02:45:17.505Z,11.57
2023-01-03T02:48:17.525Z,14.17
2023-01-03T02:51:09.024Z,13.60
2023-01-03T02:53:55.828Z,10.93
2023-01-03T02:56:47.449Z,13.00
2023-01-03T02:59:43.077Z,13.00
2023-01-03T03:02:34.773Z,11.40
2023-01-03T03:05:25.825Z,12.07
2023-01-03T03:08:11.435Z,12.13
2023-01-03T03:11:15.687Z,10.00
2023-01-03T03:14:17.915Z,11.63
2023-01-03T03:17:08.780Z,11.03
2023-01-03T03:20:15.200Z,13.13
2023-01-03T03:23:27.955Z,10.90
2023-01-03T03:26:18.411Z,10.80
2023-01-03T03:29:14.115Z,10.13
2023-01-03T03:31:59.418Z,9.67
2023-01-03T03:34:46.810Z,11.70
2023-01-03T03:37:36.353Z,9.97
2023-01-03T03:40:44.441Z,10.20
2023-01-03T03:43:55.793Z,11.73
2023-01-03T03:46:54.231Z,10.97
2023-01-03T03:49:44.662Z,11.73
2023-01-03T03:52:33.741Z,12.07
2023-01-03T03:55:25.719Z,9.90
2023-01-03T03:58:18.890Z,9.93
2023-01-03T04:01:05.846Z,10.05
2023-01-03T04:03:55.872Z,9.57
2023-01-03T04:06:49.253Z,12.00
2023-01-03T04:09:34.572Z,10.25
2023-01-03T04:12:19.865Z,11.17
2023-01-03T04:15:07.074Z,10.83
2023-01-03T04:17:53.588Z,10.90
2023-01-03T04:20:38.865Z,11.40
2023-01-03T04:23:24.639Z,10.73
2023-01-03T04:26:09.980Z,11.77
2023-01-03T04:28:55.228Z,11.30
2023-01-03T04:31:40.514Z,12.10
2023-01-03T04:34:25.887Z,13.17
2023-01-03T04:37:11.215Z,10.63
2023-01-03T04:39:56.527Z,10.13
2023-01-03T04:43:00.348Z,10.30
2023-01-03T04:45:47.727Z,10.40
2023-01-03T04:48:32.971Z,14.20
2023-01-03T04:51:18.300Z,10.07
2023-01-03T04:54:05.265Z,10.80
2023-01-03T04:56:50.888Z,10.57
2023-01-03T04:59:36.810Z,10.20
2023-01-03T05:02:22.240Z,10.30
2023-01-03T05:05:08.370Z,11.70
2023-01-03T05:07:53.692Z,9.07
2023-01-03T05:10:40.292Z,9.30
2023-01-03T05:13:25.884Z,10.23
2023-01-03T05:16:14.307Z,9.57
2023-01-03T05:19:00.065Z,13.10
2023-01-03T05:22:03.973Z,9.23
2023-01-03T05:25:07.870Z,9.97
2023-01-03T05:27:53.592Z,9.27
2023-01-03T05:30:39.240Z,9.03
2023-01-03T05:33:25.006Z,9.60
2023-01-03T05:36:11.293Z,8.93
2023-01-03T05:38:56.967Z,12.13
2023-01-03T05:42:00.731Z,9.63
2023-01-03T05:44:46.375Z,9.80
2023-01-03T05:47:31.683Z,9.23
2023-01-03T05:50:17.135Z,9.63
2023-01-03T05:53:03.863Z,10.43
2023-01-03T05:55:49.282Z,10.23
2023-01-03T05:58:34.598Z,10.07
2023-01-03T06:01:20.294Z,7.90
2023-01-03T06:04:05.645Z,10.40
2023-01-03T06:06:50.931Z,8.10
2023-01-03T06:09:36.244Z,9.57
2023-01-03T06:12:21.548Z,8.23
2023-01-03T06:15:07.272Z,12.17
2023-01-03T06:17:57.542Z,7.23
2023-01-03T06:20:43.208Z,9.60
2023-01-03T06:23:28.527Z,8.77
2023-01-03T06:26:18.920Z,7.27
2023-01-03T06:29:05.891Z,8.77
2023-01-03T06:31:51.224Z,7.77
2023-01-03T06:34:36.535Z,8.43
2023-01-03T06:37:21.971Z,7.03
2023-01-03T06:40:08.142Z,8.07
2023-01-03T06:42:53.663Z,8.17
2023-01-03T06:45:57.536Z,8.23
2023-01-03T06:49:02.016Z,7.50
2023-01-03T06:52:08.085Z,7.03
2023-01-03T06:54:53.710Z,6.40
2023-01-03T06:57:42.093Z,6.80
2023-01-03T07:00:28.086Z,7.57
2023-01-03T07:03:13.404Z,7.13
2023-01-03T07:05:58.945Z,6.40
2023-01-03T07:08:48.493Z,8.10
2023-01-03T07:11:34.019Z,8.37
2023-01-03T07:14:20.114Z,6.57
2023-01-03T07:17:05.438Z,7.83
2023-01-03T07:19:50.802Z,7.43
2023-01-03T07:22:35.913Z,7.20
2023-01-03T07:25:21.442Z,8.57
2023-01-03T07:28:11.964Z,6.27
2023-01-03T07:31:15.802Z,6.67
2023-01-03T07:36:46.460Z,8.53
2023-01-03T07:39:31.664Z,8.40
2023-01-03T07:42:35.977Z,8.77
2023-01-03T07:45:21.575Z,9.87
2023-01-03T07:48:07.435Z,10.50
2023-01-03T07:50:56.867Z,7.67
2023-01-03T07:53:42.435Z,10.80
2023-01-03T07:56:27.728Z,8.40
2023-01-03T07:59:13.168Z,9.43
2023-01-03T08:01:58.795Z,8.23
2023-01-03T08:04:44.313Z,8.70
2023-01-03T08:07:29.570Z,8.67
2023-01-03T08:10:36.283Z,7.03
2023-01-03T08:13:21.889Z,8.17
2023-01-03T08:16:11.245Z,11.20
2023-01-03T08:18:56.534Z,9.77
2023-01-03T08:21:41.618Z,6.83
2023-01-03T08:24:26.888Z,9.53
2023-01-03T08:27:12.170Z,7.30
2023-01-03T08:29:57.338Z,9.43
2023-01-03T08:32:42.887Z,8.50
2023-01-03T08:35:32.713Z,9.17
2023-01-03T08:38:23.007Z,9.13
2023-01-03T08:41:11.582Z,9.30
2023-01-03T08:44:00.633Z,8.00
2023-01-03T08:46:49.940Z,7.13
2023-01-03T08:49:36.300Z,8.77
2023-01-03T08:52:21.488Z,9.70
2023-01-03T08:55:08.279Z,9.60
2023-01-03T08:57:53.781Z,10.50
2023-01-03T09:00:39.756Z,7.90
2023-01-03T09:03:25.279Z,8.57
2023-01-03T09:06:10.571Z,9.27
2023-01-03T09:08:55.929Z,6.20
2023-01-03T09:11:41.176Z,14.60
2023-01-03T09:14:26.670Z,6.57
2023-01-03T09:17:12.074Z,6.63
2023-01-03T09:19:57.521Z,9.23
2023-01-03T09:22:43.239Z,8.00
2023-01-03T09:25:34.878Z,10.13
2023-01-03T09:31:07.721Z,7.90
2023-01-03T09:33:56.607Z,9.53
2023-01-03T09:36:42.275Z,11.80
2023-01-03T09:39:27.761Z,11.63
2023-01-03T09:42:42.362Z,10.23
2023-01-03T09:45:34.242Z,13.57
2023-01-03T09:48:28.910Z,10.83
2023-01-03T09:51:48.777Z,13.87
2023-01-03T09:54:57.353Z,10.17
2023-01-03T09:58:01.235Z,8.43
2023-01-03T10:01:12.106Z,9.87
2023-01-03T10:04:22.738Z,11.03
2023-01-03T10:07:31.972Z,10.77
2023-01-03T10:10:20.726Z,7.53
2023-01-03T10:13:24.963Z,7.03
2023-01-03T10:16:42.319Z,10.10
2023-01-03T10:19:59.988Z,7.73
2023-01-03T10:22:48.501Z,5.60
2023-01-03T10:25:41.691Z,4.40
2023-01-03T10:28:41.397Z,3.80
2023-01-03T10:31:33.168Z,7.00
2023-01-03T10:34:18.998Z,5.10
2023-01-03T10:37:17.941Z,5.70
2023-01-03T10:40:04.901Z,4.60
2023-01-03T10:42:50.541Z,5.03
2023-01-03T10:45:50.652Z,5.13
2023-01-03T10:54:41.803Z,9.23
2023-01-03T10:57:42.751Z,5.17
2023-01-03T11:00:31.293Z,4.43
2023-01-03T11:03:26.664Z,4.67
2023-01-03T11:06:16.012Z,5.17
2023-01-03T11:09:06.215Z,5.13
2023-01-03T11:12:02.788Z,4.13
2023-01-03T11:14:55.991Z,4.23
2023-01-03T11:17:59.488Z,4.43
2023-01-03T11:21:11.860Z,5.97
2023-01-03T11:24:06.134Z,4.30
2023-01-03T11:27:11.548Z,4.53
2023-01-03T11:30:18.797Z,4.27
2023-01-03T11:33:29.112Z,3.90
2023-01-03T11:36:26.634Z,3.93
2023-01-03T11:42:48.460Z,3.20
2023-01-03T11:45:36.138Z,4.88
2023-01-03T11:51:08.905Z,4.17
2023-01-03T11:54:09.139Z,4.17
2023-01-03T11:56:55.096Z,4.40
2023-01-03T11:59:53.169Z,4.57
2023-01-03T12:02:44.872Z,3.63
2023-01-03T12:05:48.918Z,5.30
2023-01-03T12:08:44.227Z,3.60
2023-01-03T12:11:34.208Z,3.30
2023-01-03T12:14:29.724Z,7.07
2023-01-03T12:17:25.350Z,3.80
2023-01-03T12:20:25.155Z,5.40
2023-01-03T12:23:44.299Z,4.10
2023-01-03T12:26:30.501Z,3.27
2023-01-03T12:29:15.941Z,6.60
2023-01-03T12:32:11.898Z,5.17
2023-01-03T12:35:33.577Z,5.23
2023-01-03T12:38:27.369Z,2.73
2023-01-03T12:41:34.432Z,3.67
2023-01-03T12:44:27.871Z,4.30
2023-01-03T12:50:28.224Z,3.43
2023-01-03T12:53:38.716Z,4.97
2023-01-03T12:56:33.030Z,2.57
2023-01-03T12:59:39.109Z,4.87
2023-01-03T13:02:45.777Z,3.50
2023-01-03T13:05:39.889Z,4.20
2023-01-03T13:17:26.788Z,3.23
2023-01-03T13:20:25.171Z,3.73
2023-01-03T13:23:28.228Z,3.23
2023-01-03T13:26:24.844Z,3.15
2023-01-03T13:29:34.635Z,3.67
2023-01-03T13:32:19.200Z,2.40
2023-01-03T13:35:04.026Z,2.97
2023-01-03T13:43:19.993Z,4.37
2023-01-03T13:46:28.421Z,2.90
2023-01-03T13:49:25.808Z,2.30
2023-01-03T13:52:56.379Z,2.87
2023-01-03T13:55:54.813Z,2.50
2023-01-03T13:58:46.744Z,2.83
2023-01-03T14:01:55.714Z,4.07
2023-01-03T14:05:02.933Z,3.10
2023-01-03T14:08:10.004Z,2.07
2023-01-03T14:11:23.068Z,3.13
2023-01-03T14:14:16.795Z,2.83
2023-01-03T14:17:03.356Z,2.13
2023-01-03T14:19:53.330Z,2.47
2023-01-03T14:22:44.176Z,3.67
2023-01-03T14:25:45.259Z,2.57
2023-01-03T14:28:33.340Z,5.30
2023-01-03T14:31:22.126Z,2.63
2023-01-03T14:34:22.177Z,3.07
2023-01-03T14:37:14.280Z,3.20
2023-01-03T14:40:06.281Z,2.40
2023-01-03T14:42:51.731Z,3.57
2023-01-03T14:45:37.124Z,6.07
2023-01-03T14:48:24.529Z,2.03
2023-01-03T14:51:10.249Z,3.37
2023-01-03T14:53:56.530Z,2.10
2023-01-03T14:56:45.645Z,4.23
2023-01-03T14:59:33.328Z,4.77
2023-01-03T15:02:20.584Z,5.23
2023-01-03T15:05:24.936Z,4.40
2023-01-03T15:08:32.296Z,4.60
2023-01-03T15:11:32.417Z,5.17
2023-01-03T15:14:18.364Z,4.17
2023-01-03T15:17:06.089Z,4.50
2023-01-03T15:19:56.850Z,5.23
2023-01-03T15:22:44.354Z,2.57
2023-01-03T15:25:43.288Z,3.00
2023-01-03T15:28:50.011Z,4.07
2023-01-03T15:31:51.966Z,4.97
2023-01-03T15:34:41.200Z,3.80
2023-01-03T15:37:26.905Z,4.23
2023-01-03T15:40:13.888Z,3.87
2023-01-03T15:43:31.184Z,4.23
2023-01-03T15:46:20.297Z,4.50
2023-01-03T15:49:06.983Z,5.40
2023-01-03T15:51:52.956Z,5.90
2023-01-03T15:54:38.383Z,6.60
2023-01-03T15:57:29.486Z,5.27
2023-01-03T16:00:19.303Z,5.97
2023-01-03T16:03:05.152Z,7.97
2023-01-03T16:05:50.820Z,10.40
2023-01-03T16:08:40.225Z,12.13
2023-01-03T16:11:33.649Z,9.37
2023-01-03T16:14:23.443Z,6.80
2023-01-03T16:17:17.070Z,11.80
2023-01-03T16:20:06.768Z,8.33
2023-01-03T16:23:00.503Z,9.27
2023-01-03T16:25:46.527Z,10.53
2023-01-03T16:28:31.832Z,12.87
2023-01-03T16:31:20.173Z,11.30
2023-01-03T16:34:10.374Z,9.00
2023-01-03T16:36:55.686Z,8.53
2023-01-03T16:39:47.483Z,9.90
2023-01-03T16:42:34.080Z,7.93
2023-01-03T16:45:19.567Z,6.37
2023-01-03T16:48:05.759Z,8.33
2023-01-03T16:50:55.170Z,8.13
2023-01-03T16:53:40.948Z,6.60
2023-01-03T16:56:27.217Z,8.87
2023-01-03T16:59:20.772Z,10.40
2023-01-03T17:02:06.668Z,5.70
2023-01-03T17:04:52.211Z,7.40
2023-01-03T17:07:38.151Z,6.97
2023-01-03T17:10:29.297Z,5.70
2023-01-03T17:13:27.358Z,6.97
2023-01-03T17:16:22.802Z,8.33
2023-01-03T17:19:51.243Z,10.73
2023-01-03T17:22:24.042Z,9.47
2023-01-03T17:25:11.513Z,9.43
2023-01-03T17:27:59.841Z,13.20
2023-01-03T17:30:45.320Z,11.20
2023-01-03T17:33:33.964Z,8.03
2023-01-03T17:36:40.573Z,7.97
2023-01-03T17:39:27.282Z,11.33
2023-01-03T17:42:17.054Z,9.23
2023-01-03T17:45:20.832Z,8.77
2023-01-03T17:48:27.944Z,6.57
2023-01-03T17:51:13.196Z,8.97
2023-01-03T17:53:58.357Z,10.40
2023-01-03T17:56:44.175Z,7.67
2023-01-03T17:59:29.739Z,7.70
2023-01-03T18:02:21.548Z,5.70
2023-01-03T18:05:18.890Z,9.23
2023-01-03T18:08:18.053Z,6.60
2023-01-03T18:11:03.905Z,8.87
2023-01-03T18:13:49.912Z,6.23
2023-01-03T18:16:35.699Z,6.90
2023-01-03T18:19:20.892Z,6.77
2023-01-03T18:22:06.223Z,7.20
2023-01-03T18:24:52.807Z,11.00
2023-01-03T18:27:38.348Z,9.40
2023-01-03T18:30:23.895Z,7.80
2023-01-03T18:33:10.170Z,7.73
2023-01-03T18:35:55.871Z,8.50
2023-01-03T18:38:41.557Z,6.87
2023-01-03T18:41:29.716Z,8.17
2023-01-03T18:44:23.760Z,7.27
2023-01-03T18:47:13.641Z,8.30
2023-01-03T18:49:59.136Z,8.37
2023-01-03T18:52:44.950Z,7.20
2023-01-03T18:55:33.516Z,9.13
2023-01-03T18:58:35.938Z,7.63
2023-01-03T19:01:21.721Z,7.93
2023-01-03T19:04:06.941Z,9.10
2023-01-03T19:06:52.493Z,8.73
2023-01-03T19:09:38.229Z,7.00
2023-01-03T19:12:24.003Z,9.27
2023-01-03T19:15:16.820Z,6.27
2023-01-03T19:18:03.720Z,7.53
2023-01-03T19:20:51.367Z,7.50
2023-01-03T19:23:37.240Z,6.40
2023-01-03T19:26:30.853Z,8.00
2023-01-03T19:29:23.773Z,6.83
2023-01-03T19:32:23.071Z,6.18
2023-01-03T19:35:18.122Z,8.03
2023-01-03T19:38:04.422Z,6.83
2023-01-03T19:40:50.610Z,7.50
2023-01-03T19:43:36.853Z,7.57
2023-01-03T19:46:48.356Z,6.40
2023-01-03T19:49:34.141Z,7.17
2023-01-03T19:52:19.470Z,6.40
2023-01-03T19:55:05.254Z,6.27
2023-01-03T19:57:51.127Z,7.27
2023-01-03T20:00:37.231Z,6.13
2023-01-03T20:03:39.219Z,7.43
2023-01-03T20:06:25.582Z,6.93
2023-01-03T20:09:11.023Z,6.90
2023-01-03T20:11:56.889Z,5.50
2023-01-03T20:14:51.388Z,9.57
2023-01-03T20:17:37.237Z,6.63
2023-01-03T20:20:24.003Z,6.70
2023-01-03T20:23:15.319Z,5.33
2023-01-03T20:26:01.229Z,6.03
2023-01-03T20:28:46.747Z,5.87
2023-01-03T20:31:41.698Z,6.20
2023-01-03T20:34:26.802Z,5.40
2023-01-03T20:37:18.682Z,6.17
2023-01-03T20:40:04.293Z,6.47
2023-01-03T20:42:50.345Z,5.73
2023-01-03T20:45:37.125Z,5.93
2023-01-03T20:48:26.140Z,6.43
2023-01-03T20:51:13.986Z,5.90
2023-01-03T20:53:59.112Z,5.93
2023-01-03T20:56:44.771Z,5.40
2023-01-03T20:59:31.545Z,5.63
2023-01-03T21:02:17.164Z,5.37
2023-01-03T21:05:02.825Z,4.83
2023-01-03T21:08:07.043Z,5.20
2023-01-03T21:10:55.149Z,4.43
2023-01-03T21:13:42.198Z,6.00
2023-01-03T21:16:44.304Z,5.50
2023-01-03T21:19:29.582Z,6.00
2023-01-03T21:22:20.385Z,5.90
2023-01-03T21:25:07.239Z,5.37
2023-01-03T21:27:52.633Z,5.50
2023-01-03T21:30:38.766Z,5.30
2023-01-03T21:33:25.149Z,5.33
2023-01-03T21:36:23.192Z,4.93
2023-01-03T21:39:10.211Z,5.37
2023-01-03T21:42:14.238Z,4.37
2023-01-03T21:44:59.553Z,5.77
2023-01-03T21:47:44.929Z,5.07
2023-01-03T21:50:31.158Z,5.23
2023-01-03T21:53:19.590Z,5.20
2023-01-03T21:56:10.148Z,4.27
2023-01-03T21:58:55.907Z,5.10
2023-01-03T22:02:02.716Z,4.40
2023-01-03T22:04:48.130Z,5.63
2023-01-03T22:07:33.333Z,4.13
2023-01-03T22:10:19.264Z,3.93
2023-01-03T22:13:07.880Z,4.67
2023-01-03T22:15:53.215Z,4.30
2023-01-03T22:18:38.387Z,3.67
2023-01-03T22:21:23.666Z,4.20
2023-01-03T22:24:08.897Z,4.93
2023-01-03T22:26:54.135Z,5.20
2023-01-03T22:29:39.431Z,4.00
2023-01-03T22:32:26.024Z,4.07
2023-01-03T22:35:13.848Z,4.00
2023-01-03T22:37:59.288Z,4.40
2023-01-03T22:40:44.825Z,3.93
2023-01-03T22:43:30.339Z,4.20
2023-01-03T22:46:16.960Z,3.80
2023-01-03T22:49:02.337Z,4.60
2023-01-03T22:51:47.644Z,4.27
2023-01-03T22:54:35.224Z,4.63
2023-01-03T22:57:20.683Z,4.33
2023-01-03T23:00:06.971Z,3.70
2023-01-03T23:02:52.496Z,3.87
2023-01-03T23:05:38.072Z,3.87
2023-01-03T23:08:23.304Z,3.57
2023-01-03T23:11:34.135Z,4.20
2023-01-03T23:14:22.292Z,5.03
2023-01-03T23:17:26.444Z,4.27
2023-01-03T23:20:11.802Z,3.70
2023-01-03T23:23:02.827Z,4.10
2023-01-03T23:25:48.437Z,3.83
2023-01-03T23:28:33.890Z,3.53
2023-01-03T23:31:19.246Z,3.73
2023-01-03T23:34:04.467Z,4.40
2023-01-03T23:36:49.783Z,4.40
2023-01-03T23:39:35.337Z,3.37
2023-01-03T23:42:20.836Z,3.20
2023-01-03T23:45:07.248Z,3.30
2023-01-03T23:47:53.391Z,3.23
2023-01-03T23:50:38.619Z,3.87
2023-01-03T23:53:23.763Z,3.57
2023-01-03T23:56:12.805Z,3.40
2023-01-03T23:58:58.406Z,3.20
